createdAt,value
2023-05-14T00:02:25.000Z,8.23
2023-05-14T00:07:25.000Z,8.42
2023-05-14T00:12:25.000Z,8.88
2023-05-14T00:17:25.000Z,8.44
2023-05-14T00:22:25.000Z,8.53
2023-05-14T00:27:25.000Z,8.53
2023-05-14T00:32:25.000Z,9.16
2023-05-14T00:37:25.000Z,9.28
2023-05-14T00:42:25.000Z,8.01
2023-05-14T00:47:25.000Z,8.31
2023-05-14T00:52:25.000Z,8.21
2023-05-14T00:57:25.000Z,7.59
2023-05-14T01:02:25.000Z,8.72
2023-05-14T01:07:25.000Z,8.59
2023-05-14T01:12:25.000Z,10.16
2023-05-14T01:17:25.000Z,10.08
2023-05-14T01:22:25.000Z,8.94
2023-05-14T01:27:26.000Z,8.8
2023-05-14T01:32:25.000Z,8.6
2023-05-14T01:37:25.000Z,9.32
2023-05-14T01:42:25.000Z,9.06
2023-05-14T01:47:25.000Z,9.79
2023-05-14T01:52:24.000Z,9.57
2023-05-14T01:57:25.000Z,8.41
2023-05-14T02:02:25.000Z,8.21
2023-05-14T02:07:26.000Z,8.41
2023-05-14T02:12:25.000Z,8.58
2023-05-14T02:17:25.000Z,8.38
2023-05-14T02:22:25.000Z,8.28
2023-05-14T02:27:25.000Z,8.5
2023-05-14T02:32:25.000Z,8.71
2023-05-14T02:37:26.000Z,8.74
2023-05-14T02:42:25.000Z,8.19
2023-05-14T02:47:25.000Z,7.99
2023-05-14T02:52:25.000Z,8.21
2023-05-14T02:57:25.000Z,7.99
2023-05-14T03:02:25.000Z,8.26
2023-05-14T03:07:26.000Z,8.02
2023-05-14T03:12:25.000Z,7.56
2023-05-14T03:17:25.000Z,7.36
2023-05-14T03:22:25.000Z,8.8
2023-05-14T03:27:26.000Z,7.79
2023-05-14T03:32:25.000Z,7.62
2023-05-14T03:37:26.000Z,8.12
2023-05-14T03:42:25.000Z,7.48
2023-05-14T03:47:26.000Z,8.2
2023-05-14T03:52:25.000Z,8.39
2023-05-14T03:57:26.000Z,7.5
2023-05-14T04:02:25.000Z,7.67
2023-05-14T04:07:25.000Z,8.4
2023-05-14T04:12:25.000Z,9.7
2023-05-14T04:17:25.000Z,7.93
2023-05-14T04:22:25.000Z,7.38
2023-05-14T04:27:25.000Z,6.98
2023-05-14T04:32:25.000Z,7.55
2023-05-14T04:37:25.000Z,6.94
2023-05-14T04:42:25.000Z,6.75
2023-05-14T04:47:25.000Z,6.91
2023-05-14T04:52:25.000Z,6.89
2023-05-14T04:57:25.000Z,7.27
2023-05-14T05:02:25.000Z,7.23
2023-05-14T05:07:25.000Z,7.18
2023-05-14T05:12:26.000Z,7.01
2023-05-14T05:17:25.000Z,6.39
2023-05-14T05:22:25.000Z,6.29
2023-05-14T05:27:25.000Z,6.45
2023-05-14T05:32:26.000Z,6.06
2023-05-14T05:37:25.000Z,9.78
2023-05-14T05:42:25.000Z,6.25
2023-05-14T05:47:26.000Z,5.87
2023-05-14T05:52:25.000Z,7.17
2023-05-14T05:57:25.000Z,6.13
2023-05-14T06:02:26.000Z,6.39
2023-05-14T06:07:25.000Z,6.38
2023-05-14T06:12:25.000Z,5.99
2023-05-14T06:17:26.000Z,5.73
2023-05-14T06:22:25.000Z,6.25
2023-05-14T06:27:25.000Z,5.95
2023-05-14T06:32:25.000Z,6.25
2023-05-14T06:37:26.000Z,7.05
2023-05-14T06:42:26.000Z,5.75
2023-05-14T06:47:25.000Z,6.21
2023-05-14T06:52:25.000Z,6.83
2023-05-14T06:57:25.000Z,6.55
2023-05-14T07:02:25.000Z,6.13
2023-05-14T07:07:26.000Z,5.48
2023-05-14T07:12:25.000Z,5.61
2023-05-14T07:17:26.000Z,5.62
2023-05-14T07:22:26.000Z,5.86
2023-05-14T07:27:26.000Z,6.46
2023-05-14T07:32:25.000Z,6.02
2023-05-14T07:37:25.000Z,6.48
2023-05-14T07:42:25.000Z,5.77
2023-05-14T07:47:25.000Z,5.52
2023-05-14T07:52:25.000Z,5.69
2023-05-14T07:57:25.000Z,5.81
2023-05-14T08:02:26.000Z,5.46
2023-05-14T08:07:26.000Z,5.73
2023-05-14T08:12:25.000Z,6.82
2023-05-14T08:17:25.000Z,6.73
2023-05-14T08:22:26.000Z,6.8
2023-05-14T08:27:25.000Z,6.68
2023-05-14T08:32:26.000Z,6.64
2023-05-14T08:37:25.000Z,7.31
2023-05-14T08:42:25.000Z,6
2023-05-14T08:47:26.000Z,6.38
2023-05-14T08:52:26.000Z,5.93
2023-05-14T08:57:25.000Z,6.34
2023-05-14T09:02:25.000Z,6.75
2023-05-14T09:07:25.000Z,5.97
2023-05-14T09:12:25.000Z,5.27
2023-05-14T09:17:26.000Z,6.32
2023-05-14T09:22:25.000Z,5.91
2023-05-14T09:27:26.000Z,5.49
2023-05-14T09:32:25.000Z,6
2023-05-14T09:37:25.000Z,6.92
2023-05-14T09:42:25.000Z,5.29
2023-05-14T09:47:25.000Z,7.6
2023-05-14T09:52:25.000Z,6.68
2023-05-14T09:57:25.000Z,7.27
2023-05-14T10:02:25.000Z,6.61
2023-05-14T10:07:26.000Z,5.9
2023-05-14T10:12:25.000Z,6.46
2023-05-14T10:17:26.000Z,5.96
2023-05-14T10:22:25.000Z,6.61
2023-05-14T10:27:26.000Z,7.49
2023-05-14T10:32:25.000Z,7.8
2023-05-14T10:37:25.000Z,6.13
2023-05-14T10:42:25.000Z,7.42
2023-05-14T10:47:25.000Z,6.61
2023-05-14T10:52:26.000Z,7.04
2023-05-14T10:57:25.000Z,7.41
2023-05-14T11:02:26.000Z,7.79
2023-05-14T11:07:25.000Z,7.05
2023-05-14T11:12:25.000Z,7.09
2023-05-14T11:17:25.000Z,7.22
2023-05-14T11:22:25.000Z,5.9
2023-05-14T11:27:25.000Z,6.13
2023-05-14T11:32:25.000Z,7.05
2023-05-14T11:37:26.000Z,7.35
2023-05-14T11:42:26.000Z,6.62
2023-05-14T11:47:25.000Z,5.95
2023-05-14T11:52:25.000Z,6.5
2023-05-14T11:57:26.000Z,7.34
2023-05-14T12:02:25.000Z,6.94
2023-05-14T12:07:26.000Z,6.06
2023-05-14T12:12:26.000Z,6.28
2023-05-14T12:17:25.000Z,5.78
2023-05-14T12:22:25.000Z,7.12
2023-05-14T12:27:26.000Z,7.28
2023-05-14T12:32:25.000Z,6.15
2023-05-14T12:37:26.000Z,6.57
2023-05-14T12:42:25.000Z,7.12
2023-05-14T12:47:25.000Z,7.25
2023-05-14T12:57:25.000Z,7.61
2023-05-14T13:02:26.000Z,7.26
2023-05-14T13:07:25.000Z,8.51
2023-05-14T13:12:26.000Z,6.91
2023-05-14T13:17:25.000Z,7.1
2023-05-14T13:22:25.000Z,6.59
2023-05-14T13:27:26.000Z,7.54
2023-05-14T13:32:26.000Z,7.06
2023-05-14T13:37:25.000Z,7.48
2023-05-14T13:42:25.000Z,6.91
2023-05-14T13:47:26.000Z,7.08
2023-05-14T13:52:25.000Z,7.26
2023-05-14T13:57:25.000Z,6.78
2023-05-14T14:02:26.000Z,6.51
2023-05-14T14:07:25.000Z,7.74
2023-05-14T14:12:26.000Z,7.26
2023-05-14T14:17:25.000Z,7.46
2023-05-14T14:22:25.000Z,7.93
2023-05-14T14:27:25.000Z,7.04
2023-05-14T14:32:25.000Z,7.04
2023-05-14T14:37:26.000Z,7.41
2023-05-14T14:42:25.000Z,6.73
2023-05-14T14:47:26.000Z,7.56
2023-05-14T14:52:25.000Z,7.99
2023-05-14T14:57:25.000Z,7.43
2023-05-14T15:02:25.000Z,8.26
2023-05-14T15:07:25.000Z,7.45
2023-05-14T15:12:25.000Z,7.09
2023-05-14T15:17:26.000Z,7.39
2023-05-14T15:22:25.000Z,7.49
2023-05-14T15:27:26.000Z,7.17
2023-05-14T15:32:25.000Z,7.4
2023-05-14T15:37:25.000Z,6.69
2023-05-14T15:42:25.000Z,7.11
2023-05-14T15:47:26.000Z,7.95
2023-05-14T15:52:25.000Z,7.62
2023-05-14T15:57:25.000Z,8.91
2023-05-14T16:02:25.000Z,9.88
2023-05-14T16:07:25.000Z,9.28
2023-05-14T16:12:25.000Z,9.55
2023-05-14T16:17:25.000Z,8.84
2023-05-14T16:22:25.000Z,11.32
2023-05-14T16:27:25.000Z,10.28
2023-05-14T16:32:25.000Z,8.75
2023-05-14T16:37:25.000Z,8.98
2023-05-14T16:42:25.000Z,9
2023-05-14T16:47:26.000Z,9.44
2023-05-14T16:52:25.000Z,9.48
2023-05-14T16:57:25.000Z,9.02
2023-05-14T17:02:26.000Z,14.11
2023-05-14T17:07:26.000Z,11.13
2023-05-14T17:12:26.000Z,8.9
2023-05-14T17:17:25.000Z,9.16
2023-05-14T17:22:25.000Z,9.98
2023-05-14T17:27:25.000Z,12.65
2023-05-14T17:32:25.000Z,10.55
2023-05-14T17:37:25.000Z,9.87
2023-05-14T17:42:25.000Z,10.14
2023-05-14T17:47:26.000Z,11.32
2023-05-14T17:52:25.000Z,12.37
2023-05-14T17:57:25.000Z,12.22
2023-05-14T18:02:25.000Z,18.99
2023-05-14T18:07:25.000Z,20.31
2023-05-14T18:12:25.000Z,22.06
2023-05-14T18:17:26.000Z,26.68
2023-05-14T18:22:25.000Z,20.15
2023-05-14T18:27:26.000Z,20.44
2023-05-14T18:32:25.000Z,18.66
2023-05-14T18:37:26.000Z,18.02
2023-05-14T18:42:26.000Z,19.92
2023-05-14T18:47:25.000Z,21.04
2023-05-14T18:52:25.000Z,15.93
2023-05-14T18:57:25.000Z,15.54
2023-05-14T19:02:25.000Z,16.97
2023-05-14T19:07:25.000Z,15.87
2023-05-14T19:12:25.000Z,13.72
2023-05-14T19:17:25.000Z,14.83
2023-05-14T19:22:25.000Z,16.02
2023-05-14T19:27:25.000Z,16.7
2023-05-14T19:32:25.000Z,17.3
2023-05-14T19:37:25.000Z,19.77
2023-05-14T19:42:26.000Z,20.25
2023-05-14T19:47:26.000Z,21.29
2023-05-14T19:52:25.000Z,32.52
2023-05-14T19:57:25.000Z,28.13
2023-05-14T20:02:25.000Z,18.57
2023-05-14T20:07:26.000Z,15.9
2023-05-14T20:12:25.000Z,15.49
2023-05-14T20:17:25.000Z,14.57
2023-05-14T20:22:26.000Z,15.87
2023-05-14T20:27:25.000Z,16.2
2023-05-14T20:32:25.000Z,15.99
2023-05-14T20:37:25.000Z,15.04
2023-05-14T20:42:26.000Z,14.24
2023-05-14T20:47:25.000Z,15.72
2023-05-14T20:52:25.000Z,14.85
2023-05-14T20:57:25.000Z,14.25
2023-05-14T21:02:25.000Z,13.62
2023-05-14T21:07:25.000Z,14.39
2023-05-14T21:12:25.000Z,15.61
2023-05-14T21:17:26.000Z,14.49
2023-05-14T21:22:26.000Z,13.56
2023-05-14T21:27:26.000Z,12.99
2023-05-14T21:32:25.000Z,12.36
2023-05-14T21:37:25.000Z,12.94
2023-05-14T21:42:25.000Z,11.4
2023-05-14T21:47:25.000Z,10.46
2023-05-14T21:52:25.000Z,12.87
2023-05-14T21:57:26.000Z,11.8
2023-05-14T22:02:25.000Z,13.31
2023-05-14T22:07:26.000Z,13.92
2023-05-14T22:12:25.000Z,15.4
2023-05-14T22:17:25.000Z,18.74
2023-05-14T22:22:25.000Z,18.33
2023-05-14T22:27:25.000Z,15.12
2023-05-14T22:32:26.000Z,14.14
2023-05-14T22:37:25.000Z,15.16
2023-05-14T22:42:25.000Z,15.72
2023-05-14T22:47:25.000Z,13.78
2023-05-14T22:52:25.000Z,14.66
2023-05-14T22:57:25.000Z,16.2
2023-05-14T23:02:26.000Z,13.76
2023-05-14T23:07:25.000Z,14.46
2023-05-14T23:12:26.000Z,17.72
2023-05-14T23:17:25.000Z,21.39
2023-05-14T23:22:25.000Z,22.73
2023-05-14T23:27:25.000Z,24.22
2023-05-14T23:32:25.000Z,27.88
2023-05-14T23:37:25.000Z,28.8
2023-05-14T23:42:26.000Z,32.25
2023-05-14T23:47:26.000Z,33.53
2023-05-14T23:52:25.000Z,35.66
2023-05-14T23:57:26.000Z,42.75
